Time;durP1;ratioP1;P1;durP2;ratioP2;P2;SDS_P1;SDS_P2;PMS_P1;PMS_P2;Temp;Humidity;BMP_temperature;BMP_pressure;BME280_temperature;BME280_humidity;BME280_pressure;Samples;Min_cycle;Max_cycle;Signal;HPM_P1;HPM_P2
2023/10/14 00:00:26;;;;;;;50.83;34.28;;;21.10;99.90;;;;;;5031980;28;20040;-72
2023/10/14 00:03:32;;;;;;;60.05;37.13;;;21.10;99.90;;;;;;5032016;28;20048;-72
2023/10/14 00:06:39;;;;;;;52.03;33.42;;;21.00;99.90;;;;;;5031596;28;20064;-72
2023/10/14 00:09:43;;;;;;;55.78;35.00;;;21.00;99.90;;;;;;5031891;28;20369;-72
2023/10/14 00:12:53;;;;;;;64.25;36.28;;;21.00;99.90;;;;;;5032003;28;20052;-72
2023/10/14 00:16:01;;;;;;;58.40;36.75;;;20.90;99.90;;;;;;5031486;28;20056;-72
2023/10/14 00:19:09;;;;;;;54.72;34.83;;;20.90;99.90;;;;;;5031442;28;20041;-72
2023/10/14 00:22:13;;;;;;;65.93;37.42;;;20.90;99.90;;;;;;5031438;28;20057;-71
2023/10/14 00:25:23;;;;;;;55.83;36.08;;;20.90;99.90;;;;;;5031587;28;20041;-72
2023/10/14 00:28:27;;;;;;;60.47;36.80;;;20.90;99.90;;;;;;5031472;28;20428;-71
2023/10/14 00:31:31;;;;;;;52.92;34.63;;;20.90;99.90;;;;;;5031257;28;20041;-72
2023/10/14 00:34:35;;;;;;;54.58;34.92;;;20.80;99.90;;;;;;5031349;28;20056;-71
2023/10/14 00:37:39;;;;;;;60.05;35.15;;;20.80;99.90;;;;;;5031469;28;20545;-72
2023/10/14 00:40:46;;;;;;;60.97;35.70;;;20.90;99.90;;;;;;5018938;28;20048;-72
2023/10/14 00:43:50;;;;;;;46.45;32.53;;;20.90;99.90;;;;;;5031250;28;20524;-72
2023/10/14 00:46:55;;;;;;;52.92;32.38;;;20.90;99.90;;;;;;5030968;28;20044;-71
2023/10/14 00:50:16;;;;;;;50.00;31.55;;;20.90;99.90;;;;;;5029988;28;20525;-71
2023/10/14 00:53:20;;;;;;;42.22;30.70;;;21.10;99.90;;;;;;5030019;28;20041;-72
2023/10/14 00:56:28;;;;;;;47.45;30.80;;;21.10;99.90;;;;;;5030411;28;20052;-72
2023/10/14 00:59:33;;;;;;;48.97;33.30;;;20.90;99.90;;;;;;5030575;28;20041;-72
2023/10/14 01:02:38;;;;;;;52.65;36.25;;;20.90;99.90;;;;;;5030718;28;20044;-72
2023/10/14 01:05:42;;;;;;;57.15;38.22;;;20.90;99.90;;;;;;5031028;28;20048;-72
2023/10/14 01:08:53;;;;;;;58.60;37.35;;;20.90;99.90;;;;;;5030908;28;20045;-72
2023/10/14 01:12:04;;;;;;;54.63;39.38;;;20.90;99.90;;;;;;5030801;28;20108;-71
2023/10/14 01:15:20;;;;;;;55.67;38.60;;;20.90;99.90;;;;;;5030003;28;20084;-72
2023/10/14 01:18:24;;;;;;;56.08;36.90;;;20.90;99.90;;;;;;5030602;28;20398;-72
2023/10/14 01:21:28;;;;;;;53.60;37.10;;;21.00;99.90;;;;;;5030373;28;20052;-72
2023/10/14 01:24:39;;;;;;;53.55;37.72;;;21.00;99.90;;;;;;5030710;28;20048;-71
2023/10/14 01:27:43;;;;;;;48.03;36.00;;;21.00;99.90;;;;;;5030741;28;20041;-72
2023/10/14 01:34:42;;;;;;;54.45;36.60;;;21.00;99.90;;;;;;5029782;28;20045;-71
2023/10/14 01:37:46;;;;;;;51.20;35.33;;;20.90;99.90;;;;;;5030457;28;20045;-72
2023/10/14 01:40:51;;;;;;;47.53;33.03;;;20.80;99.90;;;;;;5030306;28;20041;-72
2023/10/14 01:43:57;;;;;;;47.65;33.17;;;20.80;99.90;;;;;;5029790;28;20056;-72
2023/10/14 01:47:01;;;;;;;51.88;34.97;;;20.90;99.90;;;;;;5030353;28;20049;-72
2023/10/14 01:50:05;;;;;;;52.40;34.90;;;20.80;99.90;;;;;;5030533;28;20052;-72
2023/10/14 01:53:11;;;;;;;52.38;34.72;;;20.80;99.90;;;;;;5030459;28;20397;-72
2023/10/14 01:56:17;;;;;;;50.97;32.40;;;20.70;99.90;;;;;;5030148;28;20049;-72
2023/10/14 01:59:23;;;;;;;42.78;31.25;;;20.70;99.90;;;;;;5029323;28;20040;-72
2023/10/14 02:02:27;;;;;;;44.67;30.63;;;20.80;99.90;;;;;;5033128;28;20053;-72
2023/10/14 02:05:35;;;;;;;52.90;34.10;;;20.80;99.90;;;;;;5033736;28;20215;-72
2023/10/14 02:08:39;;;;;;;42.58;29.92;;;20.80;99.90;;;;;;5033977;28;20192;-72
2023/10/14 02:11:47;;;;;;;46.63;31.17;;;20.70;99.90;;;;;;5033697;28;20048;-71
2023/10/14 02:14:57;;;;;;;41.65;29.55;;;20.70;99.90;;;;;;5033102;28;20049;-72
2023/10/14 02:18:03;;;;;;;44.83;30.48;;;20.80;99.90;;;;;;5032746;28;20048;-72
2023/10/14 02:21:11;;;;;;;64.95;33.00;;;21.10;99.90;;;;;;5032995;28;20048;-72
2023/10/14 02:24:18;;;;;;;47.67;32.15;;;20.90;99.90;;;;;;5032766;28;20044;-72
2023/10/14 02:27:21;;;;;;;48.13;32.40;;;20.90;99.90;;;;;;5032773;28;20401;-72
2023/10/14 02:30:26;;;;;;;47.78;33.38;;;20.80;99.90;;;;;;5032792;28;20484;-72
2023/10/14 02:33:29;;;;;;;47.33;32.30;;;20.60;99.90;;;;;;5033566;28;20052;-72
2023/10/14 02:36:35;;;;;;;44.88;32.28;;;20.60;99.90;;;;;;5032489;28;20053;-72
2023/10/14 02:39:43;;;;;;;45.35;32.50;;;20.60;99.90;;;;;;5032718;28;20523;-72
2023/10/14 02:42:46;;;;;;;46.20;31.48;;;20.50;99.90;;;;;;5033451;28;20052;-72
2023/10/14 02:45:50;;;;;;;49.35;33.28;;;20.50;99.90;;;;;;5033487;28;20045;-72
2023/10/14 02:48:54;;;;;;;47.05;31.77;;;20.40;99.90;;;;;;5032428;28;20045;-71
2023/10/14 02:52:03;;;;;;;43.83;32.35;;;19.30;99.90;;;;;;5033390;28;20048;-71
2023/10/14 02:55:24;;;;;;;46.22;31.77;;;20.50;99.90;;;;;;5032230;28;20393;-71
2023/10/14 02:58:29;;;;;;;47.25;31.63;;;20.50;99.90;;;;;;5032148;28;20120;-72
2023/10/14 03:01:33;;;;;;;45.72;32.20;;;20.50;99.90;;;;;;5033123;28;20044;-72
2023/10/14 03:04:57;;;;;;;54.45;33.55;;;20.50;99.90;;;;;;5032306;28;20052;-71
2023/10/14 03:08:19;;;;;;;50.63;32.53;;;20.50;99.90;;;;;;5032008;28;20405;-72
2023/10/14 03:11:26;;;;;;;49.50;34.00;;;20.60;99.90;;;;;;5032883;28;20052;-71
2023/10/14 03:14:30;;;;;;;47.70;31.83;;;;;;;;;;5032559;28;20052;-71
2023/10/14 03:17:51;;;;;;;43.17;32.35;;;20.40;99.90;;;;;;5032966;28;20060;-71
2023/10/14 03:23:59;;;;;;;51.25;34.08;;;20.50;99.90;;;;;;5032692;28;19913;-71
2023/10/14 03:27:04;;;;;;;51.85;34.75;;;20.40;99.90;;;;;;5032320;28;20037;-71
2023/10/14 03:30:11;;;;;;;56.92;35.28;;;20.60;99.90;;;;;;5032515;28;20037;-71
2023/10/14 03:33:20;;;;;;;53.90;36.83;;;20.50;99.90;;;;;;5032680;28;20390;-72
2023/10/14 03:36:29;;;;;;;51.05;35.03;;;20.40;99.90;;;;;;5032378;28;20068;-73
2023/10/14 03:39:41;;;;;;;52.17;35.55;;;20.40;99.90;;;;;;5032134;28;20049;-72
2023/10/14 03:42:51;;;;;;;52.45;35.08;;;20.40;99.90;;;;;;5032394;28;20056;-71
2023/10/14 03:46:14;;;;;;;50.70;32.87;;;20.40;99.90;;;;;;5032394;28;20092;-71
2023/10/14 03:49:22;;;;;;;49.35;32.30;;;20.40;99.90;;;;;;5032195;28;20264;-71
2023/10/14 03:52:26;;;;;;;48.03;33.88;;;;;;;;;;5032328;28;20067;-71
2023/10/14 03:55:30;;;;;;;52.03;33.00;;;20.40;99.90;;;;;;5031874;28;20052;-71
2023/10/14 03:58:37;;;;;;;58.05;33.85;;;22.60;99.90;;;;;;5032100;28;20064;-71
2023/10/14 04:04:46;;;;;;;48.65;31.98;;;19.90;99.90;;;;;;5031877;28;20060;-71
2023/10/14 04:07:50;;;;;;;54.40;34.47;;;20.10;99.90;;;;;;5031905;28;20044;-71
2023/10/14 04:11:06;;;;;;;62.30;39.28;;;20.10;99.90;;;;;;5031426;28;20048;-71
2023/10/14 04:14:13;;;;;;;55.92;36.80;;;20.10;99.90;;;;;;4992216;28;20065;-71
2023/10/14 04:20:33;;;;;;;50.83;34.78;;;20.00;99.90;;;;;;4992180;28;20040;-71
2023/10/14 04:23:43;;;;;;;55.35;36.65;;;20.00;99.90;;;;;;4991650;28;20049;-71
2023/10/14 04:26:50;;;;;;;55.10;36.72;;;20.00;99.90;;;;;;4992090;28;20037;-71
2023/10/14 04:30:21;;;;;;;59.45;38.13;;;20.00;99.90;;;;;;4992097;28;20145;-71
2023/10/14 04:33:23;;;;;;;51.75;38.00;;;19.90;99.90;;;;;;4992216;28;20140;-71
2023/10/14 04:39:45;;;;;;;50.40;37.15;;;20.40;99.90;;;;;;4992000;28;20054;-71
2023/10/14 04:42:49;;;;;;;51.65;38.08;;;19.90;99.90;;;;;;4991748;28;20042;-72
2023/10/14 04:45:55;;;;;;;74.97;40.63;;;20.00;99.90;;;;;;4992281;28;20041;-71
2023/10/14 04:49:01;;;;;;;65.68;38.97;;;20.00;99.90;;;;;;4991908;28;20253;-71
2023/10/14 04:52:06;;;;;;;55.53;37.95;;;19.90;99.90;;;;;;4991420;28;20061;-71
2023/10/14 04:58:27;;;;;;;58.13;36.67;;;19.80;99.90;;;;;;4991652;28;20053;-72
2023/10/14 05:01:32;;;;;;;57.33;38.60;;;19.70;99.90;;;;;;4991463;28;20042;-72
2023/10/14 05:04:37;;;;;;;58.63;38.92;;;19.50;99.90;;;;;;4991370;28;20045;-72
2023/10/14 05:07:41;;;;;;;56.05;37.00;;;19.60;99.90;;;;;;4992173;28;20092;-72
2023/10/14 05:10:50;;;;;;;55.72;37.72;;;20.10;99.90;;;;;;4991544;28;20041;-71
2023/10/14 05:14:14;;;;;;;57.45;38.38;;;19.70;99.90;;;;;;5027551;28;20060;-72
2023/10/14 05:17:25;;;;;;;57.22;39.03;;;19.70;99.90;;;;;;5030585;28;20053;-72
2023/10/14 05:20:54;;;;;;;56.17;36.95;;;19.60;99.90;;;;;;5031001;28;20048;-72
2023/10/14 05:23:53;;;;;;;59.53;37.97;;;19.60;99.90;;;;;;5031012;28;20045;-72
2023/10/14 05:27:00;;;;;;;53.88;36.33;;;19.60;99.90;;;;;;5030853;28;20060;-72
2023/10/14 05:30:08;;;;;;;49.88;35.58;;;;;;;;;;5030436;28;20044;-72
2023/10/14 05:33:14;;;;;;;56.67;36.33;;;20.60;99.90;;;;;;5030586;28;20048;-72
2023/10/14 05:36:18;;;;;;;59.67;37.17;;;;;;;;;;5032524;28;20509;-72
2023/10/14 05:39:22;;;;;;;58.20;36.90;;;21.20;99.90;;;;;;5034546;28;20045;-72
2023/10/14 05:42:27;;;;;;;56.13;36.67;;;;;;;;;;5034526;28;20053;-71
2023/10/14 05:45:34;;;;;;;52.88;34.45;;;;;;;;;;5034609;28;20457;-71
2023/10/14 05:48:38;;;;;;;57.65;34.63;;;;;;;;;;5034090;28;20053;-71
2023/10/14 05:51:43;;;;;;;60.40;36.15;;;;;;;;;;5034419;28;20036;-71
2023/10/14 05:54:49;;;;;;;54.38;33.47;;;19.80;99.90;;;;;;5034556;28;20056;-71
2023/10/14 05:57:53;;;;;;;52.80;33.55;;;;;;;;;;5034257;28;20056;-71
2023/10/14 06:00:57;;;;;;;51.78;31.27;;;19.80;99.90;;;;;;5022304;28;20048;-72
2023/10/14 06:04:02;;;;;;;46.88;33.08;;;;;;;;;;5034187;28;20048;-72
2023/10/14 06:07:11;;;;;;;45.08;32.40;;;19.20;99.90;;;;;;5034344;28;20048;-72
2023/10/14 06:10:23;;;;;;;45.78;31.65;;;21.30;99.90;;;;;;5034012;28;20048;-71
2023/10/14 06:13:27;;;;;;;49.20;31.50;;;21.50;99.90;;;;;;5033707;28;20532;-72
2023/10/14 06:16:31;;;;;;;55.85;31.58;;;21.50;99.90;;;;;;5033848;28;20057;-72
2023/10/14 06:19:36;;;;;;;57.33;32.72;;;21.70;99.90;;;;;;5033573;28;20048;-69
2023/10/14 06:22:41;;;;;;;62.40;32.38;;;21.90;99.90;;;;;;5033385;28;20048;-70
2023/10/14 06:25:46;;;;;;;62.78;33.25;;;22.10;99.90;;;;;;5033107;28;20041;-68
2023/10/14 06:28:56;;;;;;;49.45;30.08;;;22.20;99.90;;;;;;5032392;28;20052;-71
2023/10/14 06:32:02;;;;;;;44.63;28.13;;;22.20;99.90;;;;;;5032900;28;20048;-71
2023/10/14 06:35:06;;;;;;;52.28;30.73;;;22.40;99.90;;;;;;5033439;28;20044;-71
2023/10/14 06:38:11;;;;;;;54.15;31.92;;;22.50;99.60;;;;;;5033458;28;20048;-70
2023/10/14 06:41:18;;;;;;;46.67;29.67;;;22.50;99.80;;;;;;5033680;28;20488;-70
2023/10/14 06:44:27;;;;;;;41.95;27.98;;;22.80;99.40;;;;;;5033537;28;20092;-70
2023/10/14 06:47:30;;;;;;;44.90;27.70;;;23.10;99.10;;;;;;5033209;28;20067;-70
2023/10/14 06:50:37;;;;;;;42.50;26.27;;;23.00;98.90;;;;;;5033306;28;20045;-70
2023/10/14 06:53:41;;;;;;;43.13;27.10;;;23.30;98.90;;;;;;5033427;28;20063;-70
2023/10/14 06:56:45;;;;;;;57.10;29.65;;;23.50;98.50;;;;;;5032945;28;20052;-70
2023/10/14 06:59:49;;;;;;;43.28;29.38;;;23.60;98.20;;;;;;5032967;28;20441;-71
2023/10/14 07:02:53;;;;;;;52.83;29.65;;;23.50;98.40;;;;;;5032770;28;20056;-68
2023/10/14 07:05:58;;;;;;;52.95;29.65;;;23.50;98.70;;;;;;5032883;28;20056;-70
2023/10/14 07:09:07;;;;;;;52.85;29.77;;;23.60;98.60;;;;;;5031782;28;20044;-68
2023/10/14 07:12:14;;;;;;;44.92;28.88;;;23.50;98.50;;;;;;5032805;28;20124;-71
2023/10/14 07:15:19;;;;;;;55.17;29.88;;;23.50;98.80;;;;;;5032450;28;20044;-68
2023/10/14 07:18:24;;;;;;;49.28;30.80;;;23.50;98.70;;;;;;5032700;28;20045;-66
2023/10/14 07:21:29;;;;;;;41.38;26.63;;;23.50;98.60;;;;;;5032505;28;20060;-68
2023/10/14 07:24:33;;;;;;;56.20;30.80;;;23.40;99.30;;;;;;5032561;28;20048;-68
2023/10/14 07:27:39;;;;;;;51.53;28.83;;;23.60;98.90;;;;;;5032592;28;20495;-68
2023/10/14 07:30:46;;;;;;;42.55;27.95;;;23.00;99.10;;;;;;5032368;28;20041;-70
2023/10/14 07:33:50;;;;;;;53.75;32.17;;;23.80;99.20;;;;;;5032618;28;20049;-66
2023/10/14 07:36:54;;;;;;;43.20;29.02;;;24.00;98.50;;;;;;5032229;28;20378;-67
2023/10/14 07:39:58;;;;;;;53.60;30.83;;;24.30;98.40;;;;;;5032359;28;20040;-68
2023/10/14 07:43:07;;;;;;;43.40;27.98;;;24.30;98.10;;;;;;5032214;28;20052;-68
2023/10/14 07:46:12;;;;;;;45.60;30.40;;;24.30;98.10;;;;;;5032219;28;20393;-69
2023/10/14 07:49:15;;;;;;;45.85;31.00;;;24.40;98.00;;;;;;5032347;28;20052;-69
2023/10/14 07:52:20;;;;;;;31.05;21.35;;;24.60;97.80;;;;;;5031989;28;20056;-69
2023/10/14 07:55:26;;;;;;;44.20;28.17;;;24.80;98.20;;;;;;5032116;28;20052;-67
2023/10/14 07:58:31;;;;;;;42.80;28.55;;;24.90;97.50;;;;;;5030242;28;20048;-67
2023/10/14 08:01:38;;;;;;;41.08;28.23;;;25.00;97.40;;;;;;5031599;28;20052;-67
2023/10/14 08:04:45;;;;;;;41.17;24.33;;;25.20;97.30;;;;;;5031897;28;20056;-69
2023/10/14 08:07:49;;;;;;;34.30;22.17;;;25.10;97.30;;;;;;5031755;28;20097;-67
2023/10/14 08:10:57;;;;;;;37.33;24.73;;;25.20;97.50;;;;;;5031710;28;20064;-72
2023/10/14 08:14:01;;;;;;;36.65;21.00;;;25.20;97.20;;;;;;5031360;28;20056;-74
2023/10/14 08:17:11;;;;;;;24.30;17.52;;;25.30;97.20;;;;;;5031543;28;20057;-72
2023/10/14 08:20:19;;;;;;;30.73;21.75;;;25.50;97.20;;;;;;5031473;28;20041;-70
2023/10/14 08:23:24;;;;;;;26.98;19.50;;;25.70;96.80;;;;;;5031953;28;20385;-72
2023/10/14 08:26:27;;;;;;;29.30;19.20;;;25.90;96.50;;;;;;5031159;28;20077;-68
2023/10/14 08:29:32;;;;;;;30.88;19.27;;;26.00;96.20;;;;;;5031226;28;20045;-74
2023/10/14 08:32:40;;;;;;;33.25;18.33;;;26.20;95.80;;;;;;5031562;28;20064;-71
2023/10/14 08:35:48;;;;;;;27.52;14.88;;;26.20;96.00;;;;;;5029004;28;20052;-71
2023/10/14 08:38:52;;;;;;;27.98;14.68;;;26.30;95.60;;;;;;5030588;28;20045;-71
2023/10/14 08:42:01;;;;;;;16.65;10.40;;;26.10;94.50;;;;;;5030785;28;20056;-72
2023/10/14 08:45:10;;;;;;;19.30;11.68;;;26.20;94.10;;;;;;5030945;28;20048;-73
2023/10/14 08:48:19;;;;;;;17.52;11.10;;;26.40;94.20;;;;;;5030805;28;20397;-72
2023/10/14 08:51:25;;;;;;;19.55;11.00;;;26.60;94.00;;;;;;5031046;28;20526;-70
2023/10/14 08:54:30;;;;;;;19.05;12.25;;;26.70;93.80;;;;;;5031135;28;20064;-75
2023/10/14 08:57:35;;;;;;;14.60;11.32;;;26.80;93.40;;;;;;5030965;28;20512;-74
2023/10/14 09:00:43;;;;;;;21.73;13.85;;;26.90;93.10;;;;;;5030074;28;20052;-74
2023/10/14 09:03:49;;;;;;;20.15;12.48;;;27.10;92.60;;;;;;5030715;28;20068;-74
2023/10/14 09:06:58;;;;;;;19.65;12.70;;;27.10;92.70;;;;;;5031099;28;20044;-74
2023/10/14 09:10:03;;;;;;;20.52;12.38;;;27.20;92.50;;;;;;5031012;28;20048;-74
2023/10/14 09:13:20;;;;;;;17.60;11.73;;;27.30;92.40;;;;;;5029881;28;20057;-73
2023/10/14 09:16:27;;;;;;;17.38;12.48;;;27.30;92.40;;;;;;5030584;28;20512;-74
2023/10/14 09:19:49;;;;;;;27.88;14.00;;;27.20;92.40;;;;;;5030731;28;20053;-74
2023/10/14 09:23:27;;;;;;;18.73;14.02;;;26.80;92.90;;;;;;5030572;28;20414;-74
2023/10/14 09:26:43;;;;;;;20.55;14.35;;;26.50;93.00;;;;;;5030703;28;20029;-73
2023/10/14 09:29:47;;;;;;;16.80;13.55;;;26.20;93.40;;;;;;5030203;28;20044;-74
2023/10/14 09:32:51;;;;;;;27.30;16.27;;;26.10;93.60;;;;;;5030624;28;20052;-74
2023/10/14 09:36:04;;;;;;;21.60;13.63;;;26.20;93.40;;;;;;5030537;28;20052;-74
2023/10/14 09:39:13;;;;;;;17.55;14.02;;;26.30;93.70;;;;;;5030319;28;20659;-74
2023/10/14 09:42:19;;;;;;;28.17;14.77;;;26.40;93.50;;;;;;5030425;28;20045;-74
2023/10/14 09:45:25;;;;;;;26.90;16.75;;;26.40;93.50;;;;;;5030491;28;20105;-73
2023/10/14 09:48:36;;;;;;;17.98;13.13;;;26.30;93.20;;;;;;5030243;28;20061;-73
2023/10/14 09:51:42;;;;;;;21.67;13.80;;;26.70;93.10;;;;;;5030543;28;20393;-73
2023/10/14 09:54:50;;;;;;;18.05;12.13;;;26.90;92.90;;;;;;5030337;28;20040;-72
2023/10/14 09:57:55;;;;;;;18.92;13.60;;;27.10;92.60;;;;;;5030065;28;20556;-72
2023/10/14 10:01:01;;;;;;;21.67;14.15;;;27.30;92.20;;;;;;5030090;28;20696;-73
2023/10/14 10:04:12;;;;;;;19.02;12.85;;;27.30;91.50;;;;;;5030439;28;20389;-72
2023/10/14 10:08:02;;;;;;;18.60;13.30;;;27.00;91.80;;;;;;5030633;28;20095;-73
2023/10/14 10:11:07;;;;;;;31.20;15.93;;;26.80;91.90;;;;;;5030185;28;20052;-74
2023/10/14 10:14:12;;;;;;;18.98;13.98;;;26.70;92.30;;;;;;5030238;28;20121;-74
2023/10/14 10:17:16;;;;;;;22.15;13.48;;;26.40;92.30;;;;;;5030055;28;20049;-74
2023/10/14 10:20:28;;;;;;;15.23;11.38;;;27.10;92.40;;;;;;5029878;28;20049;-73
2023/10/14 10:23:34;;;;;;;23.05;14.23;;;27.00;92.10;;;;;;5033539;28;20052;-73
2023/10/14 10:26:58;;;;;;;19.08;13.50;;;27.20;92.00;;;;;;5033451;28;20044;-73
2023/10/14 10:30:11;;;;;;;19.15;12.63;;;27.40;91.60;;;;;;5033604;28;20064;-73
2023/10/14 10:33:15;;;;;;;16.63;12.40;;;27.50;91.40;;;;;;5033243;28;20083;-73
2023/10/14 10:36:31;;;;;;;22.17;11.85;;;27.80;91.20;;;;;;5033362;28;20044;-74
2023/10/14 10:39:37;;;;;;;23.13;12.38;;;27.80;91.20;;;;;;5033117;28;20049;-74
2023/10/14 10:42:54;;;;;;;23.83;14.02;;;28.00;91.30;;;;;;5033416;28;20036;-73
2023/10/14 10:45:58;;;;;;;26.88;16.60;;;28.00;91.00;;;;;;5033556;28;20041;-74
2023/10/14 10:49:06;;;;;;;25.35;14.85;;;27.80;90.30;;;;;;5033389;28;20496;-74
2023/10/14 10:52:14;;;;;;;23.50;13.63;;;27.90;90.50;;;;;;5033037;28;20053;-75
2023/10/14 10:55:19;;;;;;;31.20;16.08;;;27.90;90.80;;;;;;5033220;28;20056;-72
2023/10/14 10:58:24;;;;;;;17.75;13.15;;;27.70;90.50;;;;;;5032772;28;20513;-73
2023/10/14 11:01:33;;;;;;;21.25;14.45;;;27.70;91.00;;;;;;5033358;28;20040;-74
2023/10/14 11:04:39;;;;;;;27.25;13.95;;;27.70;91.10;;;;;;5033023;28;20393;-73
2023/10/14 11:07:47;;;;;;;17.42;13.40;;;27.60;91.00;;;;;;5033113;28;20044;-74
2023/10/14 11:10:52;;;;;;;25.92;16.85;;;27.60;91.40;;;;;;5033130;28;20052;-74
2023/10/14 11:13:56;;;;;;;26.05;16.88;;;27.50;91.30;;;;;;5032695;28;20397;-73
2023/10/14 11:17:00;;;;;;;73.90;23.13;;;27.50;91.50;;;;;;5033227;28;20060;-73
2023/10/14 11:20:05;;;;;;;27.30;17.02;;;27.40;90.80;;;;;;5032641;28;20049;-73
2023/10/14 11:23:11;;;;;;;22.55;15.10;;;27.40;91.30;;;;;;5032411;28;20437;-73
2023/10/14 11:26:17;;;;;;;20.60;14.27;;;27.40;91.30;;;;;;5032949;28;20056;-73
2023/10/14 11:29:25;;;;;;;21.35;13.40;;;27.40;91.30;;;;;;5032777;28;20324;-73
2023/10/14 11:32:28;;;;;;;28.98;16.40;;;27.40;91.30;;;;;;5033067;28;20414;-73
2023/10/14 11:35:33;;;;;;;21.17;15.75;;;27.40;91.60;;;;;;5032755;28;20049;-73
2023/10/14 11:38:43;;;;;;;23.45;15.20;;;27.40;91.40;;;;;;5032266;28;20397;-74
2023/10/14 11:41:50;;;;;;;21.02;14.60;;;27.40;91.60;;;;;;5032227;28;20500;-73
2023/10/14 11:44:53;;;;;;;31.65;16.92;;;27.40;91.90;;;;;;5032360;28;20049;-73
2023/10/14 11:48:00;;;;;;;16.20;13.07;;;27.40;91.80;;;;;;5032401;28;20064;-72
2023/10/14 11:51:11;;;;;;;22.10;15.00;;;26.20;91.50;;;;;;5032196;28;20069;-73
2023/10/14 11:54:17;;;;;;;20.20;14.43;;;27.20;91.80;;;;;;5032264;28;20366;-74
2023/10/14 11:57:20;;;;;;;14.98;12.18;;;27.30;92.10;;;;;;5032016;28;20056;-75
2023/10/14 12:00:25;;;;;;;21.52;13.45;;;27.20;92.20;;;;;;5032154;28;20040;-74
2023/10/14 12:03:29;;;;;;;21.17;14.80;;;27.20;92.30;;;;;;5032054;28;20064;-74
2023/10/14 12:06:35;;;;;;;19.65;12.77;;;27.20;92.40;;;;;;5032100;28;20048;-76
2023/10/14 12:09:41;;;;;;;22.55;12.63;;;27.20;92.30;;;;;;5032040;28;20044;-73
2023/10/14 12:12:52;;;;;;;22.67;13.40;;;27.50;92.60;;;;;;5031695;28;20064;-72
2023/10/14 12:15:56;;;;;;;17.20;12.98;;;27.10;92.30;;;;;;5031557;28;20057;-73
2023/10/14 12:19:00;;;;;;;17.10;11.38;;;27.20;92.40;;;;;;5031639;28;20044;-73
2023/10/14 12:22:04;;;;;;;16.77;11.82;;;27.10;92.50;;;;;;5031550;28;20040;-76
2023/10/14 12:25:11;;;;;;;18.70;12.88;;;27.10;92.70;;;;;;5031525;28;20045;-73
2023/10/14 12:28:25;;;;;;;18.10;12.90;;;27.10;92.90;;;;;;5031316;28;20037;-73
2023/10/14 12:31:31;;;;;;;14.52;10.93;;;27.10;92.80;;;;;;5031600;28;20048;-73
2023/10/14 12:34:35;;;;;;;17.38;11.88;;;27.00;92.90;;;;;;5031510;28;20045;-74
2023/10/14 12:37:40;;;;;;;22.58;12.65;;;26.90;92.50;;;;;;5031061;28;20121;-73
2023/10/14 12:40:45;;;;;;;16.20;10.85;;;26.90;92.70;;;;;;5031198;28;20264;-74
2023/10/14 12:43:52;;;;;;;15.18;11.68;;;26.80;92.80;;;;;;5031332;28;20064;-73
2023/10/14 12:46:56;;;;;;;26.77;12.52;;;26.80;92.90;;;;;;5030855;28;20048;-73
2023/10/14 12:50:02;;;;;;;13.88;11.07;;;26.70;93.10;;;;;;5031124;28;20053;-74
2023/10/14 12:53:12;;;;;;;22.45;13.13;;;26.60;93.00;;;;;;5030403;28;20045;-73
2023/10/14 12:56:20;;;;;;;17.98;11.05;;;26.60;93.30;;;;;;5031197;28;20052;-72
2023/10/14 12:59:24;;;;;;;15.75;11.30;;;26.50;93.50;;;;;;5030773;28;20036;-73
2023/10/14 13:02:28;;;;;;;18.25;10.93;;;26.60;93.40;;;;;;5030907;28;20060;-73
2023/10/14 13:05:32;;;;;;;22.45;12.30;;;26.50;93.10;;;;;;5031211;28;20402;-73
2023/10/14 13:08:36;;;;;;;16.45;10.60;;;26.50;93.30;;;;;;5030696;28;20045;-72
2023/10/14 13:11:43;;;;;;;14.93;11.05;;;26.50;93.30;;;;;;5030861;28;20060;-71
2023/10/14 13:14:48;;;;;;;21.63;12.13;;;26.40;93.20;;;;;;5030721;28;20405;-74
2023/10/14 13:18:00;;;;;;;20.02;11.30;;;26.40;93.30;;;;;;5030604;28;20068;-73
2023/10/14 13:21:05;;;;;;;21.73;12.80;;;26.40;93.60;;;;;;5030534;28;20484;-73
2023/10/14 13:24:11;;;;;;;17.73;11.15;;;26.40;93.40;;;;;;5030838;28;20179;-73
2023/10/14 13:27:15;;;;;;;21.92;11.82;;;26.20;92.90;;;;;;5030486;28;20041;-73
2023/10/14 13:30:22;;;;;;;23.33;12.00;;;26.30;93.10;;;;;;5030681;28;20053;-69
2023/10/14 13:33:27;;;;;;;20.85;10.70;;;26.20;93.30;;;;;;5030381;28;20048;-70
2023/10/14 13:36:33;;;;;;;13.13;10.02;;;26.20;93.30;;;;;;5030795;28;20045;-71
2023/10/14 13:39:38;;;;;;;16.83;10.68;;;25.90;93.10;;;;;;5030700;28;20057;-72
2023/10/14 13:42:42;;;;;;;18.75;11.63;;;26.20;93.50;;;;;;5030803;28;20048;-72
2023/10/14 13:45:45;;;;;;;14.30;10.20;;;26.20;93.20;;;;;;5030660;28;20642;-70
2023/10/14 13:48:56;;;;;;;15.65;10.25;;;26.10;93.40;;;;;;5030582;28;20048;-70
2023/10/14 13:52:02;;;;;;;13.55;9.70;;;26.10;93.10;;;;;;5030494;28;20044;-71
2023/10/14 13:55:07;;;;;;;20.38;10.57;;;26.10;93.30;;;;;;5029446;28;20052;-73
2023/10/14 13:58:12;;;;;;;15.73;10.27;;;26.00;93.20;;;;;;5031473;28;20699;-74
2023/10/14 14:01:17;;;;;;;14.98;11.05;;;25.90;93.20;;;;;;5032018;28;20044;-76
2023/10/14 14:04:21;;;;;;;16.63;10.13;;;25.90;93.30;;;;;;5032220;28;20053;-76
2023/10/14 14:07:28;;;;;;;17.88;10.82;;;25.90;93.60;;;;;;5032214;28;20667;-77
2023/10/14 14:10:31;;;;;;;56.30;14.93;;;25.80;93.50;;;;;;5031542;28;20076;-77
2023/10/14 14:13:38;;;;;;;15.10;10.55;;;26.20;93.90;;;;;;5033750;28;20053;-76
2023/10/14 14:16:41;;;;;;;15.13;9.45;;;25.80;93.80;;;;;;5033770;28;20445;-76
2023/10/14 14:19:45;;;;;;;19.73;10.82;;;25.70;93.60;;;;;;5033576;28;20044;-77
2023/10/14 14:22:55;;;;;;;21.70;10.98;;;25.70;93.80;;;;;;5033470;28;20037;-76
2023/10/14 14:25:59;;;;;;;16.65;11.20;;;25.70;94.00;;;;;;5033549;28;20049;-76
2023/10/14 14:29:03;;;;;;;19.80;10.45;;;25.60;94.10;;;;;;5033656;28;20100;-75
2023/10/14 14:32:08;;;;;;;16.55;10.57;;;25.60;94.10;;;;;;5033666;28;20040;-75
2023/10/14 14:35:12;;;;;;;14.18;10.45;;;25.60;94.20;;;;;;5033706;28;20067;-75
2023/10/14 14:38:20;;;;;;;23.02;11.40;;;25.50;94.50;;;;;;5033245;28;20049;-76
2023/10/14 14:41:27;;;;;;;18.13;10.70;;;25.50;94.60;;;;;;5033470;28;20045;-76
2023/10/14 14:44:32;;;;;;;26.08;11.75;;;25.50;94.70;;;;;;5033333;28;20061;-76
2023/10/14 14:47:40;;;;;;;21.15;10.90;;;25.50;94.80;;;;;;5033157;28;20637;-76
2023/10/14 14:50:47;;;;;;;28.02;11.80;;;25.40;94.80;;;;;;5033651;28;20048;-77
2023/10/14 14:53:55;;;;;;;15.98;10.48;;;25.40;95.20;;;;;;5033374;28;20503;-76
2023/10/14 14:57:00;;;;;;;22.33;11.93;;;25.30;94.90;;;;;;5033070;28;20049;-76
2023/10/14 15:00:08;;;;;;;18.25;11.00;;;25.30;95.00;;;;;;5033286;28;20112;-77
2023/10/14 15:03:12;;;;;;;20.25;11.82;;;25.30;95.30;;;;;;5033395;28;20049;-76
2023/10/14 15:06:16;;;;;;;17.35;11.45;;;25.30;95.50;;;;;;5033296;28;20060;-76
2023/10/14 15:09:20;;;;;;;17.33;11.25;;;25.20;95.70;;;;;;5033116;28;20048;-77
2023/10/14 15:12:24;;;;;;;22.23;12.50;;;25.20;95.70;;;;;;5032943;28;20040;-77
2023/10/14 15:15:29;;;;;;;18.65;11.50;;;25.10;95.60;;;;;;5032493;28;20053;-76
2023/10/14 15:18:34;;;;;;;20.52;11.57;;;25.10;95.90;;;;;;5032388;28;20401;-77
2023/10/14 15:21:37;;;;;;;18.67;11.38;;;25.10;95.90;;;;;;5033087;28;20044;-76
2023/10/14 15:24:42;;;;;;;19.88;11.43;;;25.00;96.00;;;;;;5032971;28;20072;-76
2023/10/14 15:27:46;;;;;;;21.25;12.27;;;24.90;96.20;;;;;;5032191;28;20045;-76
2023/10/14 15:30:50;;;;;;;20.15;11.48;;;23.50;95.90;;;;;;5032662;28;20048;-76
2023/10/14 15:33:55;;;;;;;22.08;11.43;;;24.90;96.30;;;;;;5032605;28;20112;-76
2023/10/14 15:36:58;;;;;;;20.55;11.88;;;24.80;96.10;;;;;;5032163;28;20040;-76
2023/10/14 15:40:08;;;;;;;19.10;12.20;;;24.80;96.30;;;;;;5032463;28;20048;-76
2023/10/14 15:43:12;;;;;;;17.20;11.35;;;24.80;96.30;;;;;;5031555;28;20048;-78
2023/10/14 15:46:16;;;;;;;18.52;11.65;;;24.70;96.50;;;;;;5032397;28;20154;-76
2023/10/14 15:49:20;;;;;;;19.63;11.73;;;24.70;96.50;;;;;;5032251;28;20045;-75
2023/10/14 15:52:24;;;;;;;22.42;11.18;;;24.70;96.50;;;;;;5032503;28;20112;-76
2023/10/14 15:55:32;;;;;;;17.67;11.20;;;24.60;96.60;;;;;;5032346;28;20052;-75
2023/10/14 15:58:36;;;;;;;23.38;13.00;;;24.60;96.70;;;;;;5031785;28;20048;-76
2023/10/14 16:01:40;;;;;;;21.77;11.95;;;24.60;96.70;;;;;;5031869;28;20428;-75
2023/10/14 16:04:44;;;;;;;18.20;12.00;;;24.50;96.70;;;;;;5032026;28;20365;-75
2023/10/14 16:07:53;;;;;;;18.65;11.90;;;24.50;96.80;;;;;;5031718;28;20453;-75
2023/10/14 16:10:59;;;;;;;18.10;9.82;;;24.40;96.80;;;;;;5031633;28;20052;-76